Louisville, KY (40223)

12:21 PM EST del 18 Dicembre 2014 (GMT -0500)
Owl Creek Country Club | Change Station
CLOSE
Current Station
Stazione meteo personale
Location: Anchorage, KY
Altitudine: 730 ft
Stazioni meteo nelle vicinanze

Alt. 730 ft 38.28 °N, 85.53 °W | Updated 7 minutes ago

Coperto
Coperto
30.6 °F
Sembra 31 °F
N
1.0
Vento Variabile Vento da Nord
Gusts 5.0 mph

Oggi
Massima -- | Minima -- °F
--% Possibilità di precip.
Ieri
Massima -- | Minima -- °F
Precip. -- in
7:53 AM 5:23 PM
Luna calante, 13% visible
Pressione 30.28 in
Visibilità 8.0 miglia
Nuvole Molto nuvoloso 2000 ft
Coperto 7500 ft
Raffreddamento del vento 31 °F
Punto di rugiada 25 °F
Umidità 80%
Piovosità 0.00 in
Spessore del manto nevoso Non disponibile.
Raggi UV 1 fuori da 12
Polline .10 fuori da 12
Qualità dell'aria Non disponibile.
Flu Activity Non disponibile.
SPECI KLOU 181715Z 34004KT 8SM BKN020 OVC075 M01/M05 A3028 RMK AO2 T10061050

More Conditions Fewer Conditions

Pressione 30.28 in
Visibilità 8.0 miglia
Nuvole Molto nuvoloso 2000 ft
Coperto 7500 ft
Raffreddamento del vento 31 °F
Punto di rugiada 25 °F
Umidità 80%
Piovosità 0.00 in
Spessore del manto nevoso Non disponibile.
Raggi UV 1 fuori da 12
Polline .10 fuori da 12
Qualità dell'aria Non disponibile.
Flu Activity Non disponibile.
SPECI KLOU 181715Z 34004KT 8SM BKN020 OVC075 M01/M05 A3028 RMK AO2 T10061050

More Conditions Fewer Conditions

10-Day Weather Forecast

Almanac

Astronomia

Dec. 18, 2014 Alba Tramonto
Ora attuale
Crepuscolo civile
Crepuscolo nautico
Crepuscolo astronomico
Luna
Estensione della luce visibile
Lunghezza del giorno
Tomorrow will be .
, % of the Moon is Illuminated

Gli estremi di oggi

State Highs State Lows

Community

WunderPhotos

Upload Photos

1,778,964 foto caricate!

WunderBlogs® & News

Nearby

Qualità dell'aria

  Qualità dell'aria Indice AQ Inquinante
Not available.

Profondità neve

Stazione Profondità Altitudine

Attività sismica

Città  Distanza Mag. Data & Ora
Minimo Magnitudo Mostrato è 2.5.

Temperature delle acque costiere

Località Temperatura

Stazioni meteo nelle vicinanze